Gratz, Kentucky
Current Conditions -  °F | °C
As of 11:53 PM on Thursday 30 Oct 2014 (Local Time) from KFFT Reporting Station
Overcast Overcast  
Wind Chill: 40°   Ceiling: 10000
Heat Index: 40°   Visibility: 9mi
Dew Point: 37°   Wind: 0mph
Humidity: 89%   Direction: NA
Pressure: 30.04"   Gusts: NA
Location:  38.4804°N, 84.8067°W
Report Text: KFFT 310353Z AUTO 00000KT 9SM OVC100 04/03 A3004 RMK AO2 SLP174 T00440028
Loading
Personal Weather Stations






























Interactive Weather Map
Tropical Storm Tracking
New forecast layout! Learn more

10-Day Weather Forecast

Advertisements
Track Severe Weather on mobile